Time;durP1;ratioP1;P1;durP2;ratioP2;P2;SDS_P1;SDS_P2;PMS_P1;PMS_P2;Temp;Humidity;BMP_temperature;BMP_pressure;BME280_temperature;BME280_humidity;BME280_pressure;Samples;Min_cycle;Max_cycle;Signal;HPM_P1;HPM_P2
2024/01/02 00:01:37;;;;;;;0.40;0.40;;;;;;;;;;4978564;28;20035;-93
2024/01/02 00:04:03;;;;;;;0.40;0.40;;;;;;;;;;4962490;28;20072;-92
2024/01/02 00:06:29;;;;;;;0.50;0.50;;;;;;;;;;4962903;28;20050;-93
2024/01/02 00:08:55;;;;;;;0.60;0.60;;;;;;;;;;4963407;28;20054;-93
2024/01/02 00:11:21;;;;;;;0.95;0.88;;;;;;;;;;4962689;28;20505;-91
2024/01/02 00:13:48;;;;;;;0.40;0.40;;;;;;;;;;4969446;28;20043;-93
2024/01/02 00:16:14;;;;;;;0.40;0.40;;;;;;;;;;4982471;28;20035;-93
2024/01/02 00:18:40;;;;;;;0.40;0.40;;;;;;;;;;4982031;28;20050;-93
2024/01/02 00:21:06;;;;;;;0.30;0.30;;;;;;;;;;4982540;28;20046;-93
2024/01/02 00:23:32;;;;;;;0.30;0.30;;;;;;;;;;4982896;28;20053;-93
2024/01/02 00:25:58;;;;;;;0.40;0.40;;;;;;;;;;5000490;28;20042;-92
2024/01/02 00:28:24;;;;;;;0.40;0.40;;;;;;;;;;4982492;28;20065;-92
2024/01/02 00:30:50;;;;;;;0.50;0.50;;;;;;;;;;4982273;28;20046;-94
2024/01/02 00:33:16;;;;;;;0.50;0.50;;;;;;;;;;5000238;28;20042;-93
2024/01/02 00:35:42;;;;;;;0.40;0.40;;;;;;;;;;4983786;28;20046;-92
2024/01/02 00:38:09;;;;;;;0.40;0.40;;;;;;;;;;4998182;28;20034;-93
2024/01/02 00:40:35;;;;;;;0.40;0.40;;;;;;;;;;4999920;28;20042;-92
2024/01/02 00:43:01;;;;;;;0.40;0.40;;;;;;;;;;4982278;28;20066;-92
2024/01/02 00:45:27;;;;;;;0.40;0.40;;;;;;;;;;4963094;28;20100;-93
2024/01/02 00:47:53;;;;;;;0.40;0.40;;;;;;;;;;4979702;28;20094;-93
2024/01/02 00:50:19;;;;;;;0.40;0.40;;;;;;;;;;4977555;28;20454;-92
2024/01/02 00:52:45;;;;;;;0.40;0.40;;;;;;;;;;4998589;28;20042;-93
2024/01/02 00:55:11;;;;;;;0.40;0.40;;;;;;;;;;4983201;28;20049;-93
2024/01/02 00:57:37;;;;;;;0.40;0.40;;;;;;;;;;5000244;28;20049;-93
2024/01/02 01:00:06;;;;;;;0.40;0.40;;;;;;;;;;4999409;28;20038;-94
2024/01/02 01:02:32;;;;;;;0.40;0.40;;;;;;;;;;4983055;28;20046;-94
2024/01/02 01:04:58;;;;;;;0.50;0.50;;;;;;;;;;4999537;28;20405;-94
2024/01/02 01:07:24;;;;;;;0.30;0.30;;;;;;;;;;4982835;28;20042;-93
2024/01/02 01:09:50;;;;;;;0.40;0.40;;;;;;;;;;5000904;28;20038;-94
2024/01/02 01:12:16;;;;;;;0.40;0.40;;;;;;;;;;4994422;28;20042;-94
2024/01/02 01:14:42;;;;;;;0.40;0.40;;;;;;;;;;4979461;28;20043;-94
2024/01/02 01:17:09;;;;;;;0.40;0.40;;;;;;;;;;4979592;28;20039;-94
2024/01/02 01:19:36;;;;;;;0.50;0.50;;;;;;;;;;4979645;28;20042;-94
2024/01/02 01:22:03;;;;;;;0.40;0.40;;;;;;;;;;4963776;28;20053;-93
2024/01/02 01:24:29;;;;;;;0.40;0.40;;;;;;;;;;4962303;28;20050;-93
2024/01/02 01:26:55;;;;;;;0.43;0.43;;;;;;;;;;4979362;28;20078;-92
2024/01/02 01:29:21;;;;;;;0.32;0.32;;;;;;;;;;4962911;28;20039;-92
2024/01/02 01:31:47;;;;;;;0.40;0.40;;;;;;;;;;4963070;28;20132;-93
2024/01/02 01:34:13;;;;;;;0.40;0.40;;;;;;;;;;4979121;28;20043;-94
2024/01/02 01:36:39;;;;;;;0.40;0.40;;;;;;;;;;4964229;28;20066;-93
2024/01/02 01:39:05;;;;;;;0.43;0.43;;;;;;;;;;4963133;28;20038;-92
2024/01/02 01:41:32;;;;;;;0.40;0.40;;;;;;;;;;4963451;28;20050;-93
2024/01/02 01:43:58;;;;;;;0.40;0.40;;;;;;;;;;4979146;28;20636;-95
2024/01/02 01:46:26;;;;;;;0.40;0.40;;;;;;;;;;4963589;28;20050;-93
2024/01/02 01:48:52;;;;;;;0.40;0.40;;;;;;;;;;4963565;28;20049;-94
2024/01/02 01:51:19;;;;;;;0.40;0.40;;;;;;;;;;4962991;28;20039;-95
2024/01/02 01:53:45;;;;;;;0.40;0.40;;;;;;;;;;4979289;28;20106;-93
2024/01/02 01:56:12;;;;;;;0.40;0.40;;;;;;;;;;4963370;28;20043;-93
2024/01/02 01:58:38;;;;;;;0.40;0.40;;;;;;;;;;4979375;28;20478;-93
2024/01/02 02:01:05;;;;;;;0.38;0.38;;;;;;;;;;4963680;28;20418;-92
2024/01/02 02:03:31;;;;;;;0.40;0.40;;;;;;;;;;4979545;28;20047;-94
2024/01/02 02:05:57;;;;;;;0.40;0.40;;;;;;;;;;4978957;28;20039;-93
2024/01/02 02:08:24;;;;;;;0.40;0.40;;;;;;;;;;4979449;28;20103;-93
2024/01/02 02:10:50;;;;;;;0.40;0.40;;;;;;;;;;4963518;28;20038;-92
2024/01/02 02:13:16;;;;;;;0.40;0.40;;;;;;;;;;4962934;28;20047;-92
2024/01/02 02:15:45;;;;;;;0.40;0.40;;;;;;;;;;4963728;28;20137;-93
2024/01/02 02:18:11;;;;;;;0.40;0.40;;;;;;;;;;4999172;28;20421;-94
2024/01/02 02:20:37;;;;;;;0.40;0.40;;;;;;;;;;4998954;28;20077;-93
2024/01/02 02:23:03;;;;;;;0.40;0.40;;;;;;;;;;4981761;28;20042;-93
2024/01/02 02:25:29;;;;;;;0.40;0.40;;;;;;;;;;4982190;28;20034;-93
2024/01/02 02:27:55;;;;;;;0.40;0.40;;;;;;;;;;4998895;28;20467;-91
2024/01/02 02:30:21;;;;;;;0.40;0.40;;;;;;;;;;4999061;28;20046;-94
2024/01/02 02:32:47;;;;;;;0.40;0.40;;;;;;;;;;4983886;28;20035;-94
2024/01/02 02:35:13;;;;;;;0.40;0.40;;;;;;;;;;4978708;28;20054;-91
2024/01/02 02:37:39;;;;;;;0.40;0.40;;;;;;;;;;4978545;28;20031;-94
2024/01/02 02:40:05;;;;;;;0.30;0.30;;;;;;;;;;4962126;28;20042;-94
2024/01/02 02:42:34;;;;;;;0.30;0.30;;;;;;;;;;4963759;28;20130;-93
2024/01/02 02:45:00;;;;;;;0.40;0.40;;;;;;;;;;4963262;28;20066;-94
2024/01/02 02:47:26;;;;;;;0.40;0.40;;;;;;;;;;4980391;28;20592;-95
2024/01/02 02:49:52;;;;;;;0.40;0.40;;;;;;;;;;4967529;28;20043;-93
2024/01/02 02:52:19;;;;;;;0.40;0.40;;;;;;;;;;4979577;28;20086;-93
2024/01/02 02:54:45;;;;;;;0.40;0.40;;;;;;;;;;4999169;28;20050;-94
2024/01/02 02:57:13;;;;;;;0.40;0.40;;;;;;;;;;4999872;28;20070;-93
2024/01/02 02:59:39;;;;;;;0.50;0.50;;;;;;;;;;4981191;28;20456;-93
2024/01/02 03:02:05;;;;;;;0.30;0.30;;;;;;;;;;4983220;28;20043;-93
2024/01/02 03:04:31;;;;;;;0.38;0.38;;;;;;;;;;4985838;28;20042;-92
2024/01/02 03:06:57;;;;;;;0.40;0.40;;;;;;;;;;5002169;28;20046;-94
2024/01/02 03:09:23;;;;;;;0.40;0.40;;;;;;;;;;4984053;28;20711;-94
2024/01/02 03:11:49;;;;;;;0.40;0.40;;;;;;;;;;4969808;28;20104;-93
2024/01/02 03:14:15;;;;;;;0.40;0.40;;;;;;;;;;4993419;28;20042;-94
2024/01/02 03:16:42;;;;;;;0.40;0.40;;;;;;;;;;4966122;28;20490;-93
2024/01/02 03:19:08;;;;;;;0.38;0.38;;;;;;;;;;4981882;28;20043;-93
2024/01/02 03:21:34;;;;;;;0.40;0.40;;;;;;;;;;4966310;28;20101;-93
2024/01/02 03:24:02;;;;;;;0.40;0.40;;;;;;;;;;4966018;28;20485;-93
2024/01/02 03:26:28;;;;;;;0.40;0.40;;;;;;;;;;4966135;28;20409;-92
2024/01/02 03:28:54;;;;;;;0.40;0.40;;;;;;;;;;4966912;28;20042;-93
2024/01/02 03:31:20;;;;;;;0.40;0.40;;;;;;;;;;4983562;28;20046;-94
2024/01/02 03:33:47;;;;;;;0.40;0.40;;;;;;;;;;4965550;28;20073;-89
2024/01/02 03:36:13;;;;;;;0.40;0.40;;;;;;;;;;4966521;28;20077;-94
2024/01/02 03:38:40;;;;;;;0.40;0.40;;;;;;;;;;4982214;28;20039;-94
2024/01/02 03:41:06;;;;;;;0.40;0.40;;;;;;;;;;4966615;28;20379;-94
2024/01/02 03:43:32;;;;;;;0.40;0.40;;;;;;;;;;4966476;28;20473;-96
2024/01/02 03:45:58;;;;;;;0.40;0.40;;;;;;;;;;4982603;28;20501;-93
2024/01/02 03:48:24;;;;;;;0.35;0.35;;;;;;;;;;4965897;28;20053;-94
2024/01/02 03:50:50;;;;;;;0.43;0.43;;;;;;;;;;4966330;28;20461;-93
2024/01/02 03:53:16;;;;;;;0.40;0.40;;;;;;;;;;4977975;28;20096;-95
2024/01/02 03:55:42;;;;;;;0.40;0.40;;;;;;;;;;4985701;28;20081;-95
2024/01/02 03:58:08;;;;;;;0.47;0.47;;;;;;;;;;4983306;28;20039;-94
2024/01/02 04:00:35;;;;;;;0.40;0.40;;;;;;;;;;4983090;28;20049;-93
2024/01/02 04:03:01;;;;;;;0.40;0.40;;;;;;;;;;4966258;28;20035;-92
2024/01/02 04:05:28;;;;;;;0.40;0.40;;;;;;;;;;4966934;28;20039;-93
2024/01/02 04:07:54;;;;;;;0.40;0.40;;;;;;;;;;4982814;28;20042;-96
2024/01/02 04:10:20;;;;;;;0.40;0.40;;;;;;;;;;4966806;28;20073;-94
2024/01/02 04:12:46;;;;;;;0.40;0.40;;;;;;;;;;4981838;28;20043;-95
2024/01/02 04:15:12;;;;;;;0.40;0.40;;;;;;;;;;4973239;28;20046;-95
2024/01/02 04:17:38;;;;;;;0.40;0.40;;;;;;;;;;5002149;28;20047;-94
2024/01/02 04:20:05;;;;;;;0.30;0.30;;;;;;;;;;4986312;28;20471;-94
2024/01/02 04:22:31;;;;;;;0.40;0.40;;;;;;;;;;4985115;28;20129;-96
2024/01/02 04:24:57;;;;;;;0.40;0.40;;;;;;;;;;4985896;28;20101;-96
2024/01/02 04:27:23;;;;;;;0.30;0.30;;;;;;;;;;4981973;28;20034;-96
2024/01/02 04:29:49;;;;;;;0.38;0.38;;;;;;;;;;4996075;28;20042;-96
2024/01/02 04:32:15;;;;;;;0.40;0.40;;;;;;;;;;4985041;28;20532;-95
2024/01/02 04:34:42;;;;;;;0.40;0.40;;;;;;;;;;4985017;28;20038;-94
2024/01/02 04:37:08;;;;;;;0.40;0.40;;;;;;;;;;4984220;28;20038;-93
2024/01/02 04:39:34;;;;;;;0.35;0.35;;;;;;;;;;4980969;28;20042;-95
2024/01/02 04:42:01;;;;;;;0.40;0.40;;;;;;;;;;4965269;28;20042;-93
2024/01/02 04:44:28;;;;;;;0.40;0.40;;;;;;;;;;4982178;28;20050;-94
2024/01/02 04:46:54;;;;;;;0.40;0.40;;;;;;;;;;4980460;28;20047;-94
2024/01/02 04:49:20;;;;;;;0.50;0.50;;;;;;;;;;4965084;28;20138;-94
2024/01/02 04:51:46;;;;;;;0.40;0.40;;;;;;;;;;4981709;28;20062;-95
2024/01/02 04:54:13;;;;;;;0.40;0.40;;;;;;;;;;4964749;28;20047;-93
2024/01/02 04:56:39;;;;;;;0.45;0.45;;;;;;;;;;4965342;28;20043;-94
2024/01/02 04:59:05;;;;;;;0.40;0.40;;;;;;;;;;4982242;28;20042;-95
2024/01/02 05:01:31;;;;;;;0.40;0.40;;;;;;;;;;4981056;28;20038;-92
2024/01/02 05:03:57;;;;;;;0.40;0.40;;;;;;;;;;4978466;28;20042;-95
2024/01/02 05:06:24;;;;;;;0.40;0.40;;;;;;;;;;4983493;28;20038;-94
2024/01/02 05:08:50;;;;;;;0.38;0.38;;;;;;;;;;4999602;28;20046;-94
2024/01/02 05:11:16;;;;;;;0.40;0.40;;;;;;;;;;5000422;28;20106;-95
2024/01/02 05:13:42;;;;;;;0.40;0.40;;;;;;;;;;4982882;28;20057;-95
2024/01/02 05:16:08;;;;;;;0.35;0.35;;;;;;;;;;4971663;28;20035;-93
2024/01/02 05:18:36;;;;;;;0.40;0.40;;;;;;;;;;4963309;28;20094;-95
2024/01/02 05:21:02;;;;;;;0.40;0.40;;;;;;;;;;4964559;28;20141;-94
2024/01/02 05:23:28;;;;;;;0.40;0.40;;;;;;;;;;4963954;28;20043;-94
2024/01/02 05:25:55;;;;;;;0.40;0.40;;;;;;;;;;4975127;28;20129;-93
2024/01/02 05:28:21;;;;;;;0.40;0.40;;;;;;;;;;4981814;28;20043;-94
2024/01/02 05:30:47;;;;;;;0.40;0.40;;;;;;;;;;4964305;28;20553;-96
2024/01/02 05:33:13;;;;;;;0.38;0.38;;;;;;;;;;4976566;28;20047;-96
2024/01/02 05:35:39;;;;;;;0.28;0.28;;;;;;;;;;4981160;28;20047;-95
2024/01/02 05:38:05;;;;;;;0.40;0.40;;;;;;;;;;4996844;28;20073;-95
2024/01/02 05:40:31;;;;;;;0.30;0.30;;;;;;;;;;4976649;28;20046;-95
2024/01/02 05:42:57;;;;;;;0.40;0.40;;;;;;;;;;4969106;28;20111;-95
2024/01/02 05:45:23;;;;;;;0.40;0.40;;;;;;;;;;4980128;28;20046;-94
2024/01/02 05:47:49;;;;;;;0.50;0.50;;;;;;;;;;4967974;28;20043;-94
2024/01/02 05:50:15;;;;;;;0.40;0.40;;;;;;;;;;4984617;28;20077;-95
2024/01/02 05:52:45;;;;;;;0.30;0.30;;;;;;;;;;5002504;28;20550;-95
2024/01/02 05:55:11;;;;;;;0.40;0.40;;;;;;;;;;5002378;28;20042;-96
2024/01/02 05:57:37;;;;;;;0.32;0.32;;;;;;;;;;5003215;28;20097;-95
2024/01/02 06:00:03;;;;;;;0.40;0.40;;;;;;;;;;5017710;28;20041;-94
2024/01/02 06:02:29;;;;;;;0.40;0.40;;;;;;;;;;4980127;28;20043;-95
2024/01/02 06:04:55;;;;;;;0.40;0.40;;;;;;;;;;4983786;28;20580;-94
2024/01/02 06:07:21;;;;;;;0.40;0.40;;;;;;;;;;4983547;28;20045;-94
2024/01/02 06:09:47;;;;;;;0.40;0.40;;;;;;;;;;4980945;28;20049;-96
2024/01/02 06:12:13;;;;;;;0.30;0.30;;;;;;;;;;4977138;28;20042;-96
2024/01/02 06:14:39;;;;;;;0.40;0.40;;;;;;;;;;4974536;28;20066;-94
2024/01/02 06:17:05;;;;;;;0.40;0.40;;;;;;;;;;4980142;28;20042;-95
2024/01/02 06:19:31;;;;;;;0.40;0.40;;;;;;;;;;4976725;28;20045;-94
2024/01/02 06:21:58;;;;;;;0.30;0.30;;;;;;;;;;4981641;28;20038;-94
2024/01/02 06:24:24;;;;;;;0.30;0.30;;;;;;;;;;4996223;28;20046;-90
2024/01/02 06:26:51;;;;;;;0.30;0.30;;;;;;;;;;4975587;28;20069;-95
2024/01/02 06:29:17;;;;;;;0.40;0.40;;;;;;;;;;4982346;28;20074;-96
2024/01/02 06:31:43;;;;;;;0.50;0.50;;;;;;;;;;4985030;28;20050;-96
2024/01/02 06:34:08;;;;;;;0.40;0.40;;;;;;;;;;4977420;28;20062;-94
2024/01/02 06:36:39;;;;;;;0.30;0.30;;;;;;;;;;4981067;28;20109;-94
2024/01/02 06:39:05;;;;;;;0.40;0.40;;;;;;;;;;4981883;28;20406;-92
2024/01/02 06:41:31;;;;;;;0.38;0.38;;;;;;;;;;4965008;28;20182;-93
2024/01/02 06:43:57;;;;;;;0.30;0.30;;;;;;;;;;4988710;28;20074;-94
2024/01/02 06:46:23;;;;;;;0.38;0.38;;;;;;;;;;4981760;28;20066;-92
2024/01/02 06:48:49;;;;;;;0.40;0.40;;;;;;;;;;4980809;28;20043;-94
2024/01/02 06:51:15;;;;;;;0.40;0.40;;;;;;;;;;5001118;28;20042;-94
2024/01/02 06:53:42;;;;;;;0.40;0.40;;;;;;;;;;5002656;28;20054;-95
2024/01/02 06:56:08;;;;;;;0.50;0.50;;;;;;;;;;4984696;28;20046;-92
2024/01/02 06:58:36;;;;;;;0.40;0.40;;;;;;;;;;4981039;28;20047;-93
2024/01/02 07:01:02;;;;;;;0.40;0.40;;;;;;;;;;4982026;28;20053;-96
2024/01/02 07:03:28;;;;;;;0.30;0.30;;;;;;;;;;4982714;28;20039;-92
2024/01/02 07:05:54;;;;;;;0.40;0.40;;;;;;;;;;5003117;28;20034;-93
2024/01/02 07:08:21;;;;;;;0.30;0.30;;;;;;;;;;4986228;28;20042;-93
2024/01/02 07:10:52;;;;;;;0.40;0.40;;;;;;;;;;4985051;28;20042;-95
2024/01/02 07:13:18;;;;;;;0.40;0.40;;;;;;;;;;4971233;28;20042;-93
2024/01/02 07:15:44;;;;;;;0.40;0.40;;;;;;;;;;4995279;28;20054;-93
2024/01/02 07:18:11;;;;;;;0.30;0.30;;;;;;;;;;4980923;28;20042;-90
2024/01/02 07:20:37;;;;;;;0.30;0.30;;;;;;;;;;4998861;28;20518;-88
2024/01/02 07:23:03;;;;;;;0.30;0.30;;;;;;;;;;4998921;28;20104;-90
2024/01/02 07:25:29;;;;;;;0.35;0.35;;;;;;;;;;4998689;28;20038;-92
2024/01/02 07:27:55;;;;;;;0.40;0.40;;;;;;;;;;4983125;28;20045;-90
2024/01/02 07:30:21;;;;;;;0.30;0.30;;;;;;;;;;4983080;28;20125;-91
2024/01/02 07:32:48;;;;;;;0.40;0.40;;;;;;;;;;4999433;28;20034;-92
2024/01/02 07:35:14;;;;;;;0.40;0.40;;;;;;;;;;4971927;28;20070;-86
2024/01/02 07:37:40;;;;;;;0.40;0.40;;;;;;;;;;4972494;28;20458;-88
2024/01/02 07:40:07;;;;;;;0.30;0.30;;;;;;;;;;4975953;28;20050;-89
2024/01/02 07:42:33;;;;;;;0.40;0.40;;;;;;;;;;4960817;28;20042;-90
2024/01/02 07:44:59;;;;;;;0.30;0.30;;;;;;;;;;4979449;28;20047;-90
2024/01/02 07:47:26;;;;;;;0.30;0.30;;;;;;;;;;4976087;28;20425;-91
2024/01/02 07:49:53;;;;;;;0.43;0.43;;;;;;;;;;4977928;28;20051;-93
2024/01/02 07:52:19;;;;;;;0.30;0.30;;;;;;;;;;4979383;28;20094;-91
2024/01/02 07:54:45;;;;;;;0.40;0.40;;;;;;;;;;4981285;28;20126;-89
2024/01/02 07:57:11;;;;;;;0.40;0.40;;;;;;;;;;4997706;28;20074;-91
2024/01/02 07:59:37;;;;;;;0.40;0.40;;;;;;;;;;4969167;28;20039;-89
2024/01/02 08:02:03;;;;;;;0.40;0.40;;;;;;;;;;4964178;28;20074;-91
2024/01/02 08:04:29;;;;;;;0.40;0.40;;;;;;;;;;4998591;28;20478;-90
2024/01/02 08:06:57;;;;;;;0.40;0.40;;;;;;;;;;4998254;28;20605;-90
2024/01/02 08:09:24;;;;;;;0.40;0.40;;;;;;;;;;4981206;28;20049;-90
2024/01/02 08:11:50;;;;;;;0.40;0.40;;;;;;;;;;4979803;28;20038;-89
2024/01/02 08:14:16;;;;;;;0.40;0.40;;;;;;;;;;4997371;28;20100;-91
2024/01/02 08:16:42;;;;;;;0.30;0.30;;;;;;;;;;4976911;28;20050;-90
2024/01/02 08:19:08;;;;;;;0.32;0.32;;;;;;;;;;4961875;28;20042;-91
2024/01/02 08:21:35;;;;;;;0.30;0.30;;;;;;;;;;4966393;28;20035;-89
2024/01/02 08:24:02;;;;;;;0.20;0.20;;;;;;;;;;4981380;28;20043;-89
2024/01/02 08:26:29;;;;;;;0.40;0.40;;;;;;;;;;4967547;28;20088;-92
2024/01/02 08:28:55;;;;;;;0.30;0.30;;;;;;;;;;4997437;28;20050;-94
2024/01/02 08:31:21;;;;;;;0.40;0.40;;;;;;;;;;4983891;28;20497;-89
2024/01/02 08:33:47;;;;;;;0.40;0.40;;;;;;;;;;4977376;28;20191;-92
2024/01/02 08:36:13;;;;;;;0.30;0.30;;;;;;;;;;4987947;28;20038;-91
2024/01/02 08:38:43;;;;;;;0.30;0.30;;;;;;;;;;4979396;28;20035;-92
2024/01/02 08:41:09;;;;;;;0.40;0.40;;;;;;;;;;4963008;28;20046;-93
2024/01/02 08:44:07;;;;;;;0.30;0.30;;;;;;;;;;4974743;28;20047;-93
2024/01/02 08:46:33;;;;;;;0.40;0.40;;;;;;;;;;4977971;28;20046;-92
2024/01/02 08:48:59;;;;;;;0.30;0.30;;;;;;;;;;4995844;28;20098;-94
2024/01/02 08:51:26;;;;;;;0.38;0.38;;;;;;;;;;4998279;28;20101;-93
2024/01/02 08:53:52;;;;;;;0.30;0.30;;;;;;;;;;4998753;28;20050;-93
2024/01/02 08:56:19;;;;;;;0.28;0.28;;;;;;;;;;4998118;28;20035;-94
2024/01/02 08:58:45;;;;;;;0.30;0.30;;;;;;;;;;4998189;28;20493;-93
2024/01/02 09:01:12;;;;;;;0.30;0.30;;;;;;;;;;4980084;28;20042;-89
2024/01/02 09:03:38;;;;;;;0.30;0.30;;;;;;;;;;4977058;28;20049;-93
2024/01/02 09:06:04;;;;;;;0.30;0.30;;;;;;;;;;4963058;28;20047;-92
2024/01/02 09:08:30;;;;;;;0.40;0.40;;;;;;;;;;4996829;28;20092;-94
2024/01/02 09:10:56;;;;;;;0.30;0.30;;;;;;;;;;4977305;28;20046;-94
2024/01/02 09:13:22;;;;;;;0.30;0.30;;;;;;;;;;4964930;28;20047;-93
2024/01/02 09:15:48;;;;;;;0.30;0.30;;;;;;;;;;4977867;28;20038;-93
2024/01/02 09:18:14;;;;;;;0.30;0.30;;;;;;;;;;4960972;28;20039;-93
2024/01/02 09:20:40;;;;;;;0.30;0.30;;;;;;;;;;4961860;28;20042;-93
2024/01/02 09:23:06;;;;;;;0.40;0.40;;;;;;;;;;4961334;28;20061;-94
2024/01/02 09:25:36;;;;;;;0.35;0.35;;;;;;;;;;4982397;28;20490;-93
2024/01/02 09:28:04;;;;;;;0.30;0.30;;;;;;;;;;4980848;28;20046;-93
2024/01/02 09:30:30;;;;;;;0.30;0.30;;;;;;;;;;4978166;28;20494;-92
2024/01/02 09:32:56;;;;;;;0.20;0.20;;;;;;;;;;4972747;28;20125;-91
2024/01/02 09:35:22;;;;;;;0.30;0.30;;;;;;;;;;4997564;28;20104;-91
2024/01/02 09:37:48;;;;;;;0.30;0.30;;;;;;;;;;5000436;28;20043;-93
2024/01/02 09:40:22;;;;;;;0.30;0.30;;;;;;;;;;4980664;28;20038;-92
2024/01/02 09:43:05;;;;;;;0.40;0.40;;;;;;;;;;4961517;28;20054;-90
2024/01/02 09:45:42;;;;;;;0.30;0.30;;;;;;;;;;4961484;28;20082;-94
2024/01/02 09:48:11;;;;;;;0.30;0.30;;;;;;;;;;4982966;28;20082;-94
2024/01/02 09:50:46;;;;;;;0.30;0.30;;;;;;;;;;4992678;28;20101;-93
2024/01/02 09:53:12;;;;;;;;;;;;;;;;;;4985979;28;20068;-90
2024/01/02 09:55:39;;;;;;;0.30;0.30;;;;;;;;;;4970121;28;19918;-93
2024/01/02 09:58:14;;;;;;;0.40;0.40;;;;;;;;;;4990945;28;20092;-92
2024/01/02 10:00:45;;;;;;;0.35;0.35;;;;;;;;;;4960854;28;20047;-93
2024/01/02 10:06:32;;;;;;;0.30;0.30;;;;;;;;;;4988814;28;20077;-93
2024/01/02 10:09:09;;;;;;;0.40;0.40;;;;;;;;;;4995506;28;20049;-93
2024/01/02 10:11:35;;;;;;;0.30;0.30;;;;;;;;;;4973504;28;20045;-89
2024/01/02 10:14:10;;;;;;;0.30;0.30;;;;;;;;;;4979964;28;20042;-91
2024/01/02 10:16:42;;;;;;;0.30;0.30;;;;;;;;;;4971387;28;20528;-92
2024/01/02 10:19:25;;;;;;;0.30;0.30;;;;;;;;;;4985270;28;20045;-93
2024/01/02 10:22:07;;;;;;;0.40;0.40;;;;;;;;;;4972058;28;20490;-93
2024/01/02 10:24:52;;;;;;;0.30;0.30;;;;;;;;;;4983457;28;20038;-90
2024/01/02 10:27:25;;;;;;;0.40;0.40;;;;;;;;;;4979966;28;20046;-91
2024/01/02 10:30:08;;;;;;;0.30;0.30;;;;;;;;;;4964733;28;20043;-93
2024/01/02 10:32:46;;;;;;;0.30;0.30;;;;;;;;;;4981948;28;20106;-93
2024/01/02 10:35:15;;;;;;;0.40;0.40;;;;;;;;;;4983338;28;20054;-91
2024/01/02 10:37:51;;;;;;;0.40;0.40;;;;;;;;;;4976205;28;20042;-90
2024/01/02 10:40:23;;;;;;;0.30;0.30;;;;;;;;;;4983180;28;20046;-89
2024/01/02 10:43:08;;;;;;;0.30;0.30;;;;;;;;;;4999261;28;20053;-92
2024/01/02 10:45:34;;;;;;;0.20;0.20;;;;;;;;;;4998089;28;20113;-92
2024/01/02 10:48:07;;;;;;;0.22;0.22;;;;;;;;;;4978338;28;20047;-91
2024/01/02 10:51:05;;;;;;;0.40;0.40;;;;;;;;;;4970725;28;20042;-93
2024/01/02 10:53:39;;;;;;;0.30;0.30;;;;;;;;;;4964520;28;20525;-93
2024/01/02 10:56:10;;;;;;;0.30;0.30;;;;;;;;;;4998967;28;20048;-92
2024/01/02 10:58:45;;;;;;;0.30;0.30;;;;;;;;;;4993193;28;20069;-91
2024/01/02 11:01:12;;;;;;;0.30;0.30;;;;;;;;;;4980018;28;20045;-92
2024/01/02 11:03:46;;;;;;;0.30;0.30;;;;;;;;;;4985613;28;20086;-93
2024/01/02 11:06:15;;;;;;;0.38;0.38;;;;;;;;;;4978686;28;20039;-92
2024/01/02 11:08:44;;;;;;;0.30;0.30;;;;;;;;;;4979327;28;20047;-93
2024/01/02 11:11:12;;;;;;;0.30;0.30;;;;;;;;;;4963082;28;20058;-92
2024/01/02 11:13:38;;;;;;;0.30;0.30;;;;;;;;;;4964611;28;20035;-93
2024/01/02 11:16:08;;;;;;;0.20;0.20;;;;;;;;;;4962852;28;20156;-91
2024/01/02 11:18:34;;;;;;;0.40;0.40;;;;;;;;;;4997920;28;20038;-90
2024/01/02 11:21:02;;;;;;;0.30;0.30;;;;;;;;;;4976995;28;20041;-91
2024/01/02 11:23:30;;;;;;;0.40;0.40;;;;;;;;;;4987776;28;20042;-91
2024/01/02 11:26:01;;;;;;;0.30;0.30;;;;;;;;;;4976088;28;20038;-91
2024/01/02 11:28:27;;;;;;;0.30;0.30;;;;;;;;;;4989099;28;20902;-92
2024/01/02 11:30:55;;;;;;;0.32;0.32;;;;;;;;;;4968358;28;20121;-91
2024/01/02 11:33:21;;;;;;;0.30;0.30;;;;;;;;;;4977786;28;20406;-92
2024/01/02 11:36:08;;;;;;;0.40;0.40;;;;;;;;;;4984270;28;20049;-91
2024/01/02 11:38:40;;;;;;;0.30;0.30;;;;;;;;;;4988957;28;20082;-91
2024/01/02 11:41:17;;;;;;;0.30;0.30;;;;;;;;;;4977427;28;20393;-91
2024/01/02 11:44:00;;;;;;;0.30;0.30;;;;;;;;;;4976965;28;20042;-90
2024/01/02 11:46:26;;;;;;;0.30;0.30;;;;;;;;;;4978346;28;20387;-91
2024/01/02 11:48:59;;;;;;;0.30;0.30;;;;;;;;;;4960921;28;20047;-91
2024/01/02 11:51:29;;;;;;;0.30;0.30;;;;;;;;;;4978880;28;20053;-91
2024/01/02 11:54:04;;;;;;;0.20;0.20;;;;;;;;;;4967799;28;20081;-91
2024/01/02 11:56:33;;;;;;;0.40;0.40;;;;;;;;;;4980283;28;20034;-91
2024/01/02 11:59:23;;;;;;;0.30;0.30;;;;;;;;;;4974571;28;20185;-90
2024/01/02 12:01:48;;;;;;;0.30;0.30;;;;;;;;;;4977353;28;20038;-90
2024/01/02 12:04:38;;;;;;;0.32;0.32;;;;;;;;;;4977335;28;20182;-92
2024/01/02 12:07:22;;;;;;;0.30;0.30;;;;;;;;;;4962385;28;20045;-91
2024/01/02 12:09:49;;;;;;;0.30;0.30;;;;;;;;;;4976349;28;20125;-88
2024/01/02 12:12:18;;;;;;;0.40;0.40;;;;;;;;;;4975184;28;20050;-89
2024/01/02 12:14:52;;;;;;;0.30;0.30;;;;;;;;;;4982627;28;20031;-89
2024/01/02 12:17:20;;;;;;;0.30;0.30;;;;;;;;;;4957750;28;20495;-86
2024/01/02 12:19:47;;;;;;;0.30;0.30;;;;;;;;;;4969244;28;20034;-86
2024/01/02 12:22:13;;;;;;;0.20;0.20;;;;;;;;;;4974523;28;20078;-87
2024/01/02 12:24:39;;;;;;;0.30;0.30;;;;;;;;;;4987020;28;20043;-88
2024/01/02 12:27:07;;;;;;;0.30;0.30;;;;;;;;;;4958185;28;20053;-86
2024/01/02 12:29:36;;;;;;;0.30;0.30;;;;;;;;;;4989733;28;20109;-87
2024/01/02 12:32:04;;;;;;;0.30;0.30;;;;;;;;;;4974846;28;20103;-86
2024/01/02 12:34:37;;;;;;;0.30;0.30;;;;;;;;;;4992609;28;20125;-88
2024/01/02 12:37:13;;;;;;;0.30;0.30;;;;;;;;;;4985934;28;20038;-86
2024/01/02 12:39:39;;;;;;;0.30;0.30;;;;;;;;;;4977496;28;20497;-86
2024/01/02 12:42:08;;;;;;;0.20;0.20;;;;;;;;;;4956911;28;20038;-86
2024/01/02 12:44:37;;;;;;;0.30;0.30;;;;;;;;;;4960562;28;20038;-86
2024/01/02 12:47:09;;;;;;;0.20;0.20;;;;;;;;;;4993304;28;20046;-87
2024/01/02 12:49:39;;;;;;;0.32;0.32;;;;;;;;;;4986589;28;20034;-88
2024/01/02 12:52:07;;;;;;;0.30;0.30;;;;;;;;;;4991633;28;20547;-93
2024/01/02 12:54:42;;;;;;;0.30;0.30;;;;;;;;;;4981655;28;20413;-93
2024/01/02 12:57:08;;;;;;;0.27;0.27;;;;;;;;;;4986445;28;20068;-92
2024/01/02 12:59:36;;;;;;;0.30;0.30;;;;;;;;;;5000594;28;20073;-92
2024/01/02 13:02:05;;;;;;;0.30;0.30;;;;;;;;;;4977608;28;20047;-89
2024/01/02 13:04:35;;;;;;;0.30;0.30;;;;;;;;;;4974247;28;20038;-88
2024/01/02 13:07:06;;;;;;;0.30;0.30;;;;;;;;;;4973385;28;20054;-89
2024/01/02 13:09:33;;;;;;;0.30;0.30;;;;;;;;;;4976127;28;20518;-89
2024/01/02 13:12:03;;;;;;;0.20;0.20;;;;;;;;;;4979011;28;20074;-87
2024/01/02 13:14:29;;;;;;;0.20;0.20;;;;;;;;;;4975812;28;20047;-87
2024/01/02 13:16:56;;;;;;;0.30;0.30;;;;;;;;;;4970396;28;20042;-88
2024/01/02 13:19:22;;;;;;;0.30;0.30;;;;;;;;;;4976468;28;20081;-88
2024/01/02 13:21:48;;;;;;;0.30;0.30;;;;;;;;;;4980573;28;20042;-86
2024/01/02 13:24:14;;;;;;;0.30;0.30;;;;;;;;;;4968858;28;20043;-89
2024/01/02 13:26:42;;;;;;;0.30;0.30;;;;;;;;;;4970099;28;20043;-89
2024/01/02 13:29:15;;;;;;;0.30;0.30;;;;;;;;;;4988279;28;20076;-88
2024/01/02 13:31:42;;;;;;;0.30;0.30;;;;;;;;;;4977633;28;20037;-89
2024/01/02 13:34:08;;;;;;;0.30;0.30;;;;;;;;;;4975711;28;20045;-87
2024/01/02 13:36:46;;;;;;;0.28;0.28;;;;;;;;;;4992337;28;20100;-88
2024/01/02 13:39:29;;;;;;;0.22;0.22;;;;;;;;;;4992984;28;20538;-89
2024/01/02 13:41:56;;;;;;;0.30;0.30;;;;;;;;;;4976180;28;20053;-89
2024/01/02 13:44:21;;;;;;;0.30;0.30;;;;;;;;;;4975590;28;20039;-92
2024/01/02 13:46:54;;;;;;;0.30;0.30;;;;;;;;;;4974098;28;20042;-89
2024/01/02 13:49:20;;;;;;;0.30;0.30;;;;;;;;;;4983997;28;20062;-84
2024/01/02 13:51:47;;;;;;;0.20;0.20;;;;;;;;;;4959960;28;20049;-82
2024/01/02 13:54:14;;;;;;;0.38;0.38;;;;;;;;;;4975050;28;20137;-84
2024/01/02 13:56:48;;;;;;;0.30;0.30;;;;;;;;;;4975740;28;20045;-84
2024/01/02 13:59:15;;;;;;;0.30;0.30;;;;;;;;;;4975450;28;20068;-85
2024/01/02 14:01:43;;;;;;;0.40;0.40;;;;;;;;;;4975633;28;20038;-84
2024/01/02 14:04:24;;;;;;;0.30;0.30;;;;;;;;;;4991776;28;20077;-85
2024/01/02 14:06:51;;;;;;;0.30;0.30;;;;;;;;;;4991331;28;20069;-85
2024/01/02 14:09:17;;;;;;;0.30;0.30;;;;;;;;;;4975347;28;20038;-84
2024/01/02 14:11:56;;;;;;;0.30;0.30;;;;;;;;;;4972151;28;20043;-84
2024/01/02 14:14:41;;;;;;;0.28;0.28;;;;;;;;;;4956079;28;20410;-84
2024/01/02 14:17:11;;;;;;;0.38;0.38;;;;;;;;;;4971965;28;20034;-83
2024/01/02 14:19:39;;;;;;;0.30;0.30;;;;;;;;;;4956317;28;20043;-84
2024/01/02 14:22:16;;;;;;;0.30;0.30;;;;;;;;;;4956015;28;20039;-84
2024/01/02 14:24:47;;;;;;;0.30;0.30;;;;;;;;;;4956284;28;20046;-84
2024/01/02 14:27:23;;;;;;;0.30;0.30;;;;;;;;;;4964459;28;20055;-84
2024/01/02 14:29:57;;;;;;;0.20;0.20;;;;;;;;;;4972267;28;20043;-82
2024/01/02 14:32:37;;;;;;;0.30;0.30;;;;;;;;;;4988381;28;20536;-84
2024/01/02 14:35:09;;;;;;;0.30;0.30;;;;;;;;;;4967929;28;20050;-84
2024/01/02 14:37:40;;;;;;;0.30;0.30;;;;;;;;;;4955922;28;20094;-82
2024/01/02 14:40:32;;;;;;;0.30;0.30;;;;;;;;;;4961014;28;20039;-84
2024/01/02 14:43:05;;;;;;;0.40;0.40;;;;;;;;;;4960527;28;20047;-84
2024/01/02 14:45:39;;;;;;;0.30;0.30;;;;;;;;;;4972272;28;20082;-86
2024/01/02 14:48:21;;;;;;;0.20;0.20;;;;;;;;;;4966573;28;20080;-83
2024/01/02 14:51:05;;;;;;;0.30;0.30;;;;;;;;;;4955704;28;20042;-84
2024/01/02 14:53:38;;;;;;;0.20;0.20;;;;;;;;;;4955585;28;20173;-84